1997 ANTOINETTE (1996289S05093)


On this page: IBTrACS data - Map and Plots - Positions - Intensities - Original source data

Summary

Start Oct 15
End Oct 24
Basin SI
LMI 65 kt
Sources jtwc_sh
reunion
neumann
In WMO? Yes
Previous storm 1996 LILI (NA)
Previous in basin 1997 HSK0397 (SI)
Concurrent storms 1996 JOSEPHINE (NA)
1996 ABEL (WP)
1996 BETH (WP)
1996 MISSING (WP)
1996 MISSING (NI)
1996 LILI (NA)
1997 ANTOINETTE (SI)
1996 CARLO (WP)
1996 MISSING (NI)
Next in basin 1997 BELLAMINE (SI)
Next storm 1996 CARLO (WP)

top of page IBTrACS Data: File Access

Image of storm

top of page Plots:

Map of storm track will not appear if FTP is down
Time series of cyclone Maximum Sustained Wind will not appear if FTP is down
Time series of cyclone Minimum Central Pressure will not appear if FTP is down

top of page Track Data:Position

jtwc_sh reunion neumann
Date Lat Lon Lat Lon Lat Lon
1996-10-15 00:00:00 -4.6 93.0 -4.6 93.0
1996-10-15 06:00:00 -5.0 92.5 -5.0 92.5
1996-10-15 12:00:00 -5.5 92.0 -5.5 92.0
1996-10-15 18:00:00 -5.9 91.5 -5.5 93.5 -5.9 91.5
1996-10-16 00:00:00 -6.4 91.0 -6.3 92.2 -6.4 91.0
1996-10-16 06:00:00 -7.0 90.5 -7.0 91.0 -7.0 90.5
1996-10-16 12:00:00 -7.7 89.7 -7.6 90.0 -7.7 89.7
1996-10-16 18:00:00 -8.4 88.5 -8.0 89.0 -8.4 88.5
1996-10-17 00:00:00 -8.9 87.0 -8.5 87.0 -8.9 87.0
1996-10-17 06:00:00 -9.4 85.2 -8.9 85.4 -9.4 85.2
1996-10-17 12:00:00 -9.7 83.5 -9.3 83.9 -9.7 83.5
1996-10-17 18:00:00 -10.1 82.0 -9.8 82.4 -10.1 82.0
1996-10-18 00:00:00 -10.6 80.6 -10.5 80.9 -10.6 80.6
1996-10-18 06:00:00 -11.1 78.9 -11.2 79.3 -11.1 78.9
1996-10-18 12:00:00 -11.5 77.4 -11.6 77.7 -11.5 77.4
1996-10-18 18:00:00 -11.7 75.9 -11.7 75.6 -11.7 75.9
1996-10-19 00:00:00 -11.9 74.1 -11.8 73.9 -11.9 74.1
1996-10-19 06:00:00 -12.0 72.2 -12.0 72.0 -12.0 72.2
1996-10-19 12:00:00 -12.4 70.4 -12.3 70.1 -12.4 70.4
1996-10-19 18:00:00 -12.8 68.7 -12.5 68.6 -12.8 68.7
1996-10-20 00:00:00 -13.2 67.0 -12.8 67.3 -13.2 67.0
1996-10-20 06:00:00 -13.4 65.5 -13.2 66.1 -13.4 65.5
1996-10-20 12:00:00 -13.5 64.1 -13.3 64.6 -13.5 64.1
1996-10-20 18:00:00 -13.4 62.9 -13.2 63.0 -13.4 62.9
1996-10-21 00:00:00 -13.2 61.4 -13.1 61.5 -13.2 61.4
jtwc_sh reunion neumann
1996-10-21 06:00:00 -13.0 59.9 -13.2 59.9 -13.0 59.9
1996-10-21 12:00:00 -12.6 58.4 -13.1 58.4 -12.6 58.4
1996-10-21 18:00:00 -12.2 57.0 -12.9 57.0 -12.2 57.0
1996-10-22 00:00:00 -11.8 55.3 -12.7 55.2 -11.8 55.3
1996-10-22 06:00:00 -11.4 53.3 -12.2 53.6 -11.4 53.3
1996-10-22 12:00:00 -10.8 51.2 -11.4 51.9 -10.8 51.2
1996-10-22 18:00:00 -10.4 49.2 -10.1 50.3 -10.4 49.2
1996-10-23 00:00:00 -10.0 47.5 -8.9 48.8 -10.0 47.5
1996-10-23 06:00:00 -9.5 45.8 -8.0 47.3 -9.5 45.8
1996-10-23 12:00:00 -8.1 45.6
1996-10-23 18:00:00 -8.3 43.8
1996-10-24 00:00:00 -8.3 42.2

top of pageTrack Data:Intensity

jtwc_sh reunion neumann
Date Wind Pres Wind Pres Wind Pres
1996-10-15 00:00:00 15. 15.
1996-10-15 06:00:00 15. 15.
1996-10-15 12:00:00 20. 20.
1996-10-15 18:00:00 20. 20. 1004. 20.
1996-10-16 00:00:00 25. 20. 1002. 25.
1996-10-16 06:00:00 25. 20. 1002. 25.
1996-10-16 12:00:00 30. 25. 1000. 30.
1996-10-16 18:00:00 35. 25. 999. 35.
1996-10-17 00:00:00 40. 28. 997. 40.
1996-10-17 06:00:00 45. 30. 995. 45.
1996-10-17 12:00:00 50. 35. 993. 50.
1996-10-17 18:00:00 55. 35. 990. 55.
1996-10-18 00:00:00 60. 43. 985. 60.
1996-10-18 06:00:00 65. 43. 985. 65.
1996-10-18 12:00:00 65. 43. 985. 65.
1996-10-18 18:00:00 60. 40. 987. 60.
1996-10-19 00:00:00 60. 35. 990. 60.
1996-10-19 06:00:00 60. 43. 985. 60.
1996-10-19 12:00:00 55. 55. 975. 55.
1996-10-19 18:00:00 55. 63. 965. 55.
1996-10-20 00:00:00 55. 63. 965. 55.
1996-10-20 06:00:00 60. 60. 968. 60.
1996-10-20 12:00:00 60. 53. 975. 60.
1996-10-20 18:00:00 55. 50. 980. 55.
1996-10-21 00:00:00 45. 43. 985. 45.
jtwc_sh reunion neumann
1996-10-21 06:00:00 40. 35. 993. 40.
1996-10-21 12:00:00 35. 30. 997. 35.
1996-10-21 18:00:00 30. 25. 1000. 30.
1996-10-22 00:00:00 25. 20. 1003. 25.
1996-10-22 06:00:00 25. 20. 1005. 25.
1996-10-22 12:00:00 25. 20. 1007. 25.
1996-10-22 18:00:00 25. 20. 1008. 25.
1996-10-23 00:00:00 25. 20. 1008. 25.
1996-10-23 06:00:00 25. 15. 1010. 25.
1996-10-23 12:00:00 15. 1010.
1996-10-23 18:00:00 15. 1010.
1996-10-24 00:00:00 15. 1012.

top of page Links to source data

Source Source file Format
jtwc_sh bsh041997.txt ATCF
reunion WMO-Best-Tracks.txt:Line=17581:antoinette WMO (old format)
neumann tracks.sh:Storm=1068:ANTOINETTE:BSH041997:JTWC HURDAT